Impacts METAR Board
IDs:

KFLL - Ft Lauderdale-Hollyw, FL, US

Updated at: 2100 UTC 15 Oct 2018
Potential Impact None Slight Moderate High
Time 15/09Z 15/10Z 15/11Z 15/12Z 15/13Z 15/14Z 15/15Z 15/16Z 15/17Z 15/18Z 15/19Z 15/20Z 15/21Z
Temp81 81 81 82 83 85 86 87 87 87 86 86 85
Dewpt76 76 76 76 76 77 78 78 79 78 78 78 78
Altim30.02 30.03 30.05 30.06 30.06 30.07 30.08 30.07 30.06 30.04 30.03 30.02 30.03
VIS10 10 10 10 10 10 10 10 10 10 10 10 10
CIG-- -- -- -- -- -- -- -- -- -- -- -- --
CoverFEWFEWSCTFEWFEWFEWFEWSCTFEWSCTFEWSCTSCT
FltCatVFRVFRVFRVFRVFRVFRVFRVFRVFRVFRVFRVFRVFR
WX--------------------------
WDir110110120110100909010090110100110100
WSpd11 9 11 10 12 13 13 15 15 15 13 13 16
WGst-- -- -- -- -- -- -- -- -- -- 19 -- --
Raw hourly METARs
KFLL 150853Z 11011KT 10SM FEW026 27/24 A3002 RMK AO2 SLP165 T02720244 56006
KFLL 150953Z 11009KT 10SM FEW026 27/24 A3003 RMK AO2 SLP169 T02720244
KFLL 151053Z 12011KT 10SM SCT023 27/24 A3005 RMK AO2 SLP174 T02720244
KFLL 151153Z 11010KT 10SM FEW025 FEW250 28/24 A3006 RMK AO2 SLP178 T02780244 10278 20272 51013
KFLL 151253Z 10012KT 10SM FEW025 FEW250 28/24 A3006 RMK AO2 SLP180 T02830244
KFLL 151353Z 09013KT 10SM FEW025 29/25 A3007 RMK AO2 SLP183 T02940250
KFLL 151453Z 09013KT 10SM FEW024 FEW031 30/26 A3008 RMK AO2 SLP184 T03000256 51007
KFLL 151553Z 10015KT 10SM SCT025 31/26 A3007 RMK AO2 SLP181 T03060256
KFLL 151653Z 09015KT 10SM FEW025 31/26 A3006 RMK AO2 SLP178 T03060261
KFLL 151753Z 11015KT 10SM SCT025 31/26 A3004 RMK AO2 SLP172 T03060256 10306 20278 58013
KFLL 151853Z 10013G19KT 10SM FEW025 30/26 A3003 RMK AO2 SLP167 T03000256
KFLL 151953Z 11013KT 10SM SCT025 30/26 A3002 RMK AO2 SLP167 T03000256
KFLL 152053Z 10016KT 10SM FEW021 SCT025 29/26 A3003 RMK AO2 SLP167 T02940256 55004



Page loaded:  21:04 UTC  |   02:04 PM Pacific  |   03:04 PM Mountain  |   04:04 PM Central  |   05:04 PM Eastern

 

ADVISORIES

FORECASTS

FORECASTS

OBSERVATIONS

USER TOOLS

ABOUT US